Heaton, North Carolina
Current Conditions -  °F | °C
As of 7:15 AM on Friday 19 Dec 2014 (Local Time) from KTNB Reporting Station
Broken Clouds Broken Clouds  
Wind Chill: 25°   Ceiling: 2600
Heat Index: 32°   Visibility: 10mi
Dew Point: 19°   Wind: 7mph
Humidity: 59%   Direction: 300°WNW
Pressure: 30.1"   Gusts: NA
Location:  36.1731°N, 81.9572°W
Report Text: KTNB 191215Z AUTO 30006KT 10SM BKN026 BKN033 00/M07 A3010 RMK AO2 T10011073
Loading
Personal Weather Stations






























Interactive Weather Map New forecast layout! Learn more

10-Day Weather Forecast

Advertisements
Track Severe Weather on mobile